DLH65N EDDF-LOWW
Flight info
| Callsign | DLH65N |
|---|---|
| Flight time | 0h 55m |
| Altitude | 31000 |
| Route | SULUS4D/07C SULUS Z650 VEMUT/N0425F290 DCT BUDEX BUDEX2W |
| Aircraft | A346/H-SDE2E3FGHIJ3J4J5M1RWXY/LB1D1 |
Departure
| Time | 2026-05-07 19:36 |
|---|---|
| Airport | Frankfurt Main Airport (EDDF) |
Arrival
| Time | 2026-05-07 20:31 |
|---|---|
| Airport | Vienna International Airport (LOWW) |
| Time | Latitude | Longitude | Altitude | Speed | Heading |
|---|---|---|---|---|---|
| 2026-05-07 19:19 | 50.04748 | 8.56392 | 364 ft | 0 kts | 340° |
| 2026-05-07 19:26 | 50.04736 | 8.56400 | 371 ft | 4 kts | 336° |
| 2026-05-07 19:26 | 50.04713 | 8.56419 | 367 ft | 4 kts | 323° |
| 2026-05-07 19:26 | 50.04695 | 8.56446 | 371 ft | 4 kts | 305° |
| 2026-05-07 19:27 | 50.04684 | 8.56479 | 370 ft | 4 kts | 280° |
| 2026-05-07 19:27 | 50.04685 | 8.56513 | 370 ft | 4 kts | 251° |
| 2026-05-07 19:27 | 50.04682 | 8.56501 | 369 ft | 4 kts | 250° |
| 2026-05-07 19:27 | 50.04673 | 8.56461 | 366 ft | 4 kts | 250° |
| 2026-05-07 19:28 | 50.04664 | 8.56422 | 371 ft | 4 kts | 250° |
| 2026-05-07 19:28 | 50.04660 | 8.56406 | 371 ft | 0 kts | 250° |
| 2026-05-07 19:31 | 50.04658 | 8.56400 | 371 ft | 3 kts | 250° |
| 2026-05-07 19:31 | 50.04637 | 8.56308 | 366 ft | 12 kts | 250° |
| 2026-05-07 19:31 | 50.04604 | 8.56166 | 367 ft | 16 kts | 250° |
| 2026-05-07 19:32 | 50.04556 | 8.55993 | 369 ft | 19 kts | 232° |
| 2026-05-07 19:32 | 50.04429 | 8.55912 | 371 ft | 22 kts | 186° |
| 2026-05-07 19:32 | 50.04289 | 8.55948 | 366 ft | 19 kts | 181° |
| 2026-05-07 19:32 | 50.04145 | 8.55944 | 365 ft | 22 kts | 161° |
| 2026-05-07 19:33 | 50.04041 | 8.55914 | 364 ft | 18 kts | 241° |
| 2026-05-07 19:33 | 50.03990 | 8.55705 | 360 ft | 22 kts | 249° |
| 2026-05-07 19:33 | 50.03932 | 8.55460 | 363 ft | 25 kts | 250° |
| 2026-05-07 19:33 | 50.03868 | 8.55194 | 365 ft | 25 kts | 249° |
| 2026-05-07 19:34 | 50.03813 | 8.54964 | 361 ft | 22 kts | 250° |
| 2026-05-07 19:34 | 50.03772 | 8.54787 | 358 ft | 10 kts | 250° |
| 2026-05-07 19:34 | 50.03712 | 8.54705 | 363 ft | 14 kts | 186° |
| 2026-05-07 19:34 | 50.03611 | 8.54751 | 360 ft | 9 kts | 160° |
| 2026-05-07 19:35 | 50.03588 | 8.54803 | 360 ft | 8 kts | 89° |
| 2026-05-07 19:35 | 50.03600 | 8.54874 | 357 ft | 0 kts | 71° |
| 2026-05-07 19:35 | 50.03611 | 8.54924 | 357 ft | 23 kts | 70° |
| 2026-05-07 19:35 | 50.03757 | 8.55534 | 361 ft | 94 kts | 70° |
| 2026-05-07 19:36 | 50.04057 | 8.56792 | 369 ft | 152 kts | 70° |
| 2026-05-07 19:36 | 50.04452 | 8.58491 | 723 ft | 172 kts | 71° |
| 2026-05-07 19:36 | 50.04848 | 8.60283 | 1440 ft | 177 kts | 71° |
| 2026-05-07 19:36 | 50.05237 | 8.62123 | 2185 ft | 181 kts | 71° |
| 2026-05-07 19:37 | 50.05634 | 8.64023 | 2783 ft | 190 kts | 71° |
| 2026-05-07 19:37 | 50.06087 | 8.66046 | 3218 ft | 206 kts | 69° |
| 2026-05-07 19:37 | 50.06588 | 8.68241 | 3637 ft | 224 kts | 69° |
| 2026-05-07 19:37 | 50.07040 | 8.70627 | 4301 ft | 233 kts | 81° |
| 2026-05-07 19:38 | 50.07042 | 8.73177 | 5100 ft | 241 kts | 96° |
| 2026-05-07 19:38 | 50.06768 | 8.75856 | 5676 ft | 259 kts | 99° |
| 2026-05-07 19:38 | 50.06424 | 8.78713 | 6280 ft | 275 kts | 100° |
| 2026-05-07 19:38 | 50.06072 | 8.81632 | 7089 ft | 281 kts | 99° |
| 2026-05-07 19:39 | 50.05826 | 8.84664 | 8011 ft | 283 kts | 94° |
| 2026-05-07 19:39 | 50.05783 | 8.87795 | 8974 ft | 287 kts | 89° |
| 2026-05-07 19:39 | 50.05829 | 8.90880 | 9913 ft | 291 kts | 88° |
| 2026-05-07 19:39 | 50.05891 | 8.94070 | 10710 ft | 300 kts | 88° |
| 2026-05-07 19:40 | 50.05954 | 8.97415 | 11277 ft | 317 kts | 88° |
| 2026-05-07 19:40 | 50.06017 | 9.00958 | 11778 ft | 336 kts | 88° |
| 2026-05-07 19:40 | 50.06080 | 9.04706 | 12273 ft | 355 kts | 88° |
| 2026-05-07 19:40 | 50.06143 | 9.08660 | 12740 ft | 374 kts | 89° |
| 2026-05-07 19:41 | 50.06206 | 9.12816 | 13262 ft | 389 kts | 89° |
| 2026-05-07 19:41 | 50.06269 | 9.17081 | 14082 ft | 395 kts | 89° |
| 2026-05-07 19:41 | 50.06329 | 9.21390 | 14907 ft | 399 kts | 89° |
| 2026-05-07 19:41 | 50.06386 | 9.25740 | 15716 ft | 404 kts | 89° |
| 2026-05-07 19:42 | 50.06443 | 9.30093 | 16499 ft | 409 kts | 89° |
| 2026-05-07 19:42 | 50.06501 | 9.34554 | 17278 ft | 413 kts | 89° |
| 2026-05-07 19:42 | 50.06558 | 9.39074 | 18074 ft | 419 kts | 89° |
| 2026-05-07 19:42 | 50.06615 | 9.43642 | 18765 ft | 424 kts | 89° |
| 2026-05-07 19:43 | 50.06671 | 9.48263 | 19439 ft | 428 kts | 89° |
| 2026-05-07 19:43 | 50.06726 | 9.52928 | 20137 ft | 432 kts | 89° |
| 2026-05-07 19:43 | 50.06780 | 9.57632 | 20831 ft | 436 kts | 89° |
| 2026-05-07 19:43 | 50.06832 | 9.62376 | 21510 ft | 440 kts | 89° |
| 2026-05-07 19:44 | 50.06881 | 9.67166 | 22211 ft | 443 kts | 89° |
| 2026-05-07 19:44 | 50.06931 | 9.71999 | 22904 ft | 447 kts | 89° |
| 2026-05-07 19:44 | 50.06976 | 9.76797 | 23554 ft | 451 kts | 89° |
| 2026-05-07 19:44 | 50.07019 | 9.81706 | 24112 ft | 455 kts | 89° |
| 2026-05-07 19:45 | 50.07060 | 9.86652 | 24667 ft | 458 kts | 89° |
| 2026-05-07 19:45 | 50.07101 | 9.91618 | 25367 ft | 457 kts | 89° |
| 2026-05-07 19:45 | 50.07139 | 9.96568 | 26187 ft | 454 kts | 89° |
| 2026-05-07 19:45 | 50.07175 | 10.01471 | 27020 ft | 451 kts | 89° |
| 2026-05-07 19:46 | 50.07210 | 10.06351 | 27817 ft | 449 kts | 89° |
| 2026-05-07 19:46 | 50.07244 | 10.11220 | 28606 ft | 447 kts | 89° |
| 2026-05-07 19:46 | 50.07275 | 10.16062 | 29402 ft | 445 kts | 89° |
| 2026-05-07 19:46 | 50.07301 | 10.20887 | 30127 ft | 445 kts | 89° |
| 2026-05-07 19:47 | 50.07327 | 10.25735 | 30636 ft | 447 kts | 89° |
| 2026-05-07 19:47 | 50.07353 | 10.30600 | 31002 ft | 451 kts | 89° |
| 2026-05-07 19:47 | 50.06866 | 10.40387 | 31073 ft | 454 kts | 100° |
| 2026-05-07 19:48 | 50.05685 | 10.50003 | 31070 ft | 454 kts | 101° |
| 2026-05-07 19:48 | 50.04505 | 10.59672 | 31076 ft | 454 kts | 100° |
| 2026-05-07 19:49 | 50.03351 | 10.69344 | 31069 ft | 453 kts | 100° |
| 2026-05-07 19:49 | 50.02203 | 10.79005 | 31064 ft | 453 kts | 100° |
| 2026-05-07 19:50 | 50.01052 | 10.88664 | 31062 ft | 453 kts | 100° |
| 2026-05-07 19:50 | 49.99894 | 10.98312 | 31062 ft | 453 kts | 100° |
| 2026-05-07 19:51 | 49.98738 | 11.07891 | 31049 ft | 453 kts | 101° |
| 2026-05-07 19:51 | 49.97566 | 11.17517 | 31057 ft | 453 kts | 101° |
| 2026-05-07 19:52 | 49.96387 | 11.27139 | 31053 ft | 453 kts | 101° |
| 2026-05-07 19:52 | 49.95200 | 11.36754 | 31055 ft | 453 kts | 101° |
| 2026-05-07 19:53 | 49.94003 | 11.46379 | 31046 ft | 453 kts | 101° |
| 2026-05-07 19:53 | 49.92796 | 11.56008 | 31058 ft | 454 kts | 101° |
| 2026-05-07 19:54 | 49.91583 | 11.65631 | 31041 ft | 454 kts | 101° |
| 2026-05-07 19:54 | 49.90361 | 11.75257 | 31035 ft | 454 kts | 101° |
| 2026-05-07 19:55 | 49.89131 | 11.84878 | 31031 ft | 454 kts | 101° |
| 2026-05-07 19:55 | 49.87891 | 11.94503 | 31036 ft | 455 kts | 101° |
| 2026-05-07 19:56 | 49.86650 | 12.04086 | 31030 ft | 455 kts | 101° |
| 2026-05-07 19:56 | 49.85394 | 12.13720 | 31031 ft | 455 kts | 101° |
| 2026-05-07 19:57 | 49.84131 | 12.23351 | 31053 ft | 455 kts | 101° |
| 2026-05-07 19:57 | 49.82858 | 12.32966 | 31054 ft | 456 kts | 101° |
| 2026-05-07 19:58 | 49.81204 | 12.42476 | 31046 ft | 457 kts | 110° |
| 2026-05-07 19:58 | 49.78541 | 12.51429 | 31050 ft | 457 kts | 120° |
| 2026-05-07 19:59 | 49.75049 | 12.59671 | 31045 ft | 457 kts | 125° |
| 2026-05-07 19:59 | 49.71434 | 12.67701 | 31029 ft | 457 kts | 126° |
| 2026-05-07 20:00 | 49.67796 | 12.75785 | 31040 ft | 459 kts | 126° |
| 2026-05-07 20:00 | 49.64151 | 12.83874 | 31042 ft | 459 kts | 126° |
| 2026-05-07 20:01 | 49.60498 | 12.91966 | 31040 ft | 459 kts | 126° |
| 2026-05-07 20:01 | 49.56848 | 13.00035 | 31037 ft | 459 kts | 126° |
| 2026-05-07 20:02 | 49.53188 | 13.08103 | 31032 ft | 459 kts | 126° |
| 2026-05-07 20:02 | 49.49521 | 13.16163 | 31041 ft | 459 kts | 126° |
| 2026-05-07 20:03 | 49.45849 | 13.24207 | 31039 ft | 459 kts | 126° |
| 2026-05-07 20:03 | 49.42199 | 13.32180 | 31023 ft | 459 kts | 126° |
| 2026-05-07 20:04 | 49.38515 | 13.40207 | 31029 ft | 460 kts | 127° |
| 2026-05-07 20:04 | 49.34822 | 13.48229 | 31037 ft | 460 kts | 127° |
| 2026-05-07 20:05 | 49.31106 | 13.56276 | 31035 ft | 461 kts | 127° |
| 2026-05-07 20:05 | 49.27382 | 13.64310 | 31034 ft | 461 kts | 127° |
| 2026-05-07 20:06 | 49.23680 | 13.72276 | 31043 ft | 461 kts | 127° |
| 2026-05-07 20:06 | 49.19947 | 13.80287 | 31035 ft | 461 kts | 127° |
| 2026-05-07 20:07 | 49.16217 | 13.88270 | 31034 ft | 460 kts | 127° |
| 2026-05-07 20:07 | 49.12480 | 13.96242 | 31032 ft | 460 kts | 127° |
| 2026-05-07 20:08 | 49.08766 | 14.04143 | 31029 ft | 461 kts | 128° |
| 2026-05-07 20:08 | 49.05016 | 14.12095 | 31029 ft | 461 kts | 128° |
| 2026-05-07 20:09 | 49.01262 | 14.20035 | 31032 ft | 461 kts | 128° |
| 2026-05-07 20:10 | 48.95673 | 14.31858 | 30974 ft | 459 kts | 127° |
| 2026-05-07 20:10 | 48.93931 | 14.35931 | 30655 ft | 458 kts | 123° |
| 2026-05-07 20:10 | 48.92317 | 14.40104 | 30264 ft | 456 kts | 122° |
| 2026-05-07 20:10 | 48.90726 | 14.44276 | 29706 ft | 455 kts | 122° |
| 2026-05-07 20:11 | 48.89136 | 14.48448 | 29102 ft | 454 kts | 122° |
| 2026-05-07 20:11 | 48.87571 | 14.52552 | 28522 ft | 454 kts | 122° |
| 2026-05-07 20:11 | 48.85986 | 14.56695 | 27936 ft | 453 kts | 122° |
| 2026-05-07 20:11 | 48.84402 | 14.60838 | 27352 ft | 452 kts | 123° |
| 2026-05-07 20:12 | 48.82823 | 14.64960 | 26763 ft | 451 kts | 123° |
| 2026-05-07 20:12 | 48.81295 | 14.69137 | 26281 ft | 453 kts | 117° |
| 2026-05-07 20:12 | 48.80062 | 14.73580 | 26034 ft | 456 kts | 115° |
| 2026-05-07 20:12 | 48.78836 | 14.78031 | 25759 ft | 458 kts | 115° |
| 2026-05-07 20:13 | 48.77600 | 14.82506 | 25513 ft | 459 kts | 115° |
| 2026-05-07 20:13 | 48.76361 | 14.86986 | 25259 ft | 460 kts | 115° |
| 2026-05-07 20:13 | 48.75118 | 14.91474 | 25019 ft | 461 kts | 115° |
| 2026-05-07 20:13 | 48.73873 | 14.95964 | 24769 ft | 462 kts | 115° |
| 2026-05-07 20:14 | 48.72626 | 15.00455 | 24533 ft | 461 kts | 115° |
| 2026-05-07 20:14 | 48.71378 | 15.04940 | 24045 ft | 461 kts | 115° |
| 2026-05-07 20:14 | 48.70130 | 15.09413 | 23570 ft | 458 kts | 115° |
| 2026-05-07 20:14 | 48.68892 | 15.13845 | 23006 ft | 454 kts | 115° |
| 2026-05-07 20:15 | 48.67663 | 15.18238 | 22456 ft | 451 kts | 115° |
| 2026-05-07 20:15 | 48.66442 | 15.22593 | 21914 ft | 447 kts | 115° |
| 2026-05-07 20:15 | 48.65240 | 15.26871 | 21392 ft | 446 kts | 115° |
| 2026-05-07 20:15 | 48.64024 | 15.31190 | 20878 ft | 444 kts | 115° |
| 2026-05-07 20:16 | 48.62816 | 15.35477 | 20356 ft | 442 kts | 115° |
| 2026-05-07 20:16 | 48.61611 | 15.39746 | 19839 ft | 438 kts | 115° |
| 2026-05-07 20:16 | 48.60420 | 15.43960 | 19321 ft | 433 kts | 115° |
| 2026-05-07 20:16 | 48.59236 | 15.48134 | 18853 ft | 430 kts | 115° |
| 2026-05-07 20:17 | 48.58056 | 15.52286 | 18366 ft | 427 kts | 115° |
| 2026-05-07 20:17 | 48.57279 | 15.55017 | 18008 ft | 426 kts | 115° |
| 2026-05-07 20:17 | 48.56112 | 15.59117 | 17458 ft | 423 kts | 115° |
| 2026-05-07 20:17 | 48.54953 | 15.63178 | 16921 ft | 419 kts | 115° |
| 2026-05-07 20:18 | 48.53428 | 15.68518 | 16237 ft | 416 kts | 115° |
| 2026-05-07 20:18 | 48.52656 | 15.71216 | 15887 ft | 414 kts | 115° |
| 2026-05-07 20:18 | 48.51515 | 15.75194 | 15362 ft | 411 kts | 115° |
| 2026-05-07 20:18 | 48.50384 | 15.79134 | 14866 ft | 406 kts | 115° |
| 2026-05-07 20:19 | 48.49265 | 15.83025 | 14377 ft | 402 kts | 115° |
| 2026-05-07 20:19 | 48.48168 | 15.86836 | 13902 ft | 399 kts | 115° |
| 2026-05-07 20:19 | 48.47063 | 15.90665 | 13362 ft | 397 kts | 115° |
| 2026-05-07 20:19 | 48.45964 | 15.94469 | 12821 ft | 394 kts | 115° |
| 2026-05-07 20:20 | 48.44869 | 15.98251 | 12304 ft | 391 kts | 115° |
| 2026-05-07 20:20 | 48.43786 | 16.01987 | 11782 ft | 388 kts | 115° |
| 2026-05-07 20:20 | 48.42706 | 16.05709 | 11273 ft | 385 kts | 115° |
| 2026-05-07 20:20 | 48.41634 | 16.09398 | 10760 ft | 383 kts | 115° |
| 2026-05-07 20:21 | 48.40567 | 16.13064 | 10275 ft | 379 kts | 115° |
| 2026-05-07 20:21 | 48.39505 | 16.16693 | 9774 ft | 375 kts | 114° |
| 2026-05-07 20:21 | 48.38461 | 16.20270 | 9235 ft | 371 kts | 114° |
| 2026-05-07 20:21 | 48.37431 | 16.23808 | 8712 ft | 367 kts | 114° |
| 2026-05-07 20:22 | 48.36421 | 16.27266 | 8198 ft | 363 kts | 114° |
| 2026-05-07 20:22 | 48.35404 | 16.30727 | 7693 ft | 360 kts | 114° |
| 2026-05-07 20:22 | 48.34395 | 16.34161 | 7184 ft | 357 kts | 114° |
| 2026-05-07 20:22 | 48.33391 | 16.37572 | 6693 ft | 354 kts | 114° |
| 2026-05-07 20:23 | 48.32393 | 16.40960 | 6204 ft | 351 kts | 114° |
| 2026-05-07 20:23 | 48.31414 | 16.44280 | 5969 ft | 341 kts | 114° |
| 2026-05-07 20:23 | 48.30437 | 16.47453 | 5802 ft | 328 kts | 116° |
| 2026-05-07 20:23 | 48.29349 | 16.50401 | 5681 ft | 317 kts | 121° |
| 2026-05-07 20:24 | 48.28151 | 16.53103 | 5565 ft | 305 kts | 126° |
| 2026-05-07 20:24 | 48.26871 | 16.55592 | 5276 ft | 296 kts | 128° |
| 2026-05-07 20:24 | 48.25600 | 16.57978 | 5079 ft | 288 kts | 128° |
| 2026-05-07 20:24 | 48.24371 | 16.60249 | 4907 ft | 280 kts | 131° |
| 2026-05-07 20:25 | 48.23036 | 16.62381 | 4714 ft | 273 kts | 134° |
| 2026-05-07 20:25 | 48.21733 | 16.64352 | 4529 ft | 266 kts | 135° |
| 2026-05-07 20:25 | 48.20440 | 16.66290 | 4348 ft | 259 kts | 135° |
| 2026-05-07 20:25 | 48.19182 | 16.68181 | 4172 ft | 252 kts | 135° |
| 2026-05-07 20:26 | 48.17960 | 16.70024 | 4007 ft | 246 kts | 135° |
| 2026-05-07 20:26 | 48.16761 | 16.71839 | 3838 ft | 244 kts | 135° |
| 2026-05-07 20:26 | 48.15568 | 16.73654 | 3649 ft | 245 kts | 135° |
| 2026-05-07 20:26 | 48.14376 | 16.75473 | 3441 ft | 242 kts | 135° |
| 2026-05-07 20:27 | 48.13168 | 16.77217 | 3189 ft | 239 kts | 147° |
| 2026-05-07 20:27 | 48.11665 | 16.78069 | 2962 ft | 227 kts | 182° |
| 2026-05-07 20:27 | 48.10177 | 16.77712 | 2900 ft | 209 kts | 201° |
| 2026-05-07 20:27 | 48.08848 | 16.77023 | 2864 ft | 194 kts | 205° |
| 2026-05-07 20:28 | 48.07616 | 16.76317 | 2781 ft | 186 kts | 211° |
| 2026-05-07 20:28 | 48.06735 | 16.75058 | 2683 ft | 179 kts | 250° |
| 2026-05-07 20:28 | 48.06531 | 16.73252 | 2657 ft | 176 kts | 271° |
| 2026-05-07 20:28 | 48.06639 | 16.71464 | 2576 ft | 166 kts | 285° |
| 2026-05-07 20:29 | 48.06970 | 16.69873 | 2452 ft | 157 kts | 292° |
| 2026-05-07 20:29 | 48.07391 | 16.68397 | 2226 ft | 152 kts | 295° |
| 2026-05-07 20:29 | 48.07845 | 16.66979 | 2016 ft | 149 kts | 296° |
| 2026-05-07 20:29 | 48.08294 | 16.65607 | 1819 ft | 146 kts | 296° |
| 2026-05-07 20:30 | 48.08740 | 16.64239 | 1624 ft | 146 kts | 296° |
| 2026-05-07 20:30 | 48.09182 | 16.62879 | 1438 ft | 145 kts | 295° |
| 2026-05-07 20:30 | 48.09622 | 16.61523 | 1226 ft | 145 kts | 293° |
| 2026-05-07 20:30 | 48.10066 | 16.60155 | 1024 ft | 146 kts | 292° |
| 2026-05-07 20:31 | 48.10510 | 16.58791 | 838 ft | 145 kts | 291° |
| 2026-05-07 20:31 | 48.10949 | 16.57439 | 644 ft | 143 kts | 290° |
| 2026-05-07 20:31 | 48.11316 | 16.56292 | 624 ft | 97 kts | 295° |
| 2026-05-07 20:31 | 48.11527 | 16.55659 | 626 ft | 37 kts | 297° |
| 2026-05-07 20:32 | 48.11665 | 16.55335 | 626 ft | 36 kts | 312° |
| 2026-05-07 20:32 | 48.11792 | 16.55165 | 631 ft | 19 kts | 331° |
| 2026-05-07 20:32 | 48.11874 | 16.55158 | 632 ft | 12 kts | 21° |
| 2026-05-07 20:32 | 48.11959 | 16.55182 | 633 ft | 10 kts | 336° |
| 2026-05-07 20:33 | 48.11999 | 16.55097 | 622 ft | 10 kts | 295° |
| 2026-05-07 20:33 | 48.12025 | 16.55015 | 629 ft | 8 kts | 296° |
| 2026-05-07 20:33 | 48.12055 | 16.54923 | 630 ft | 12 kts | 296° |
| 2026-05-07 20:33 | 48.12084 | 16.54833 | 631 ft | 5 kts | 296° |
| 2026-05-07 20:34 | 48.12101 | 16.54807 | 630 ft | 4 kts | 343° |
| 2026-05-07 20:34 | 48.12128 | 16.54809 | 629 ft | 4 kts | 12° |
| 2026-05-07 20:34 | 48.12156 | 16.54825 | 626 ft | 3 kts | 22° |
| 2026-05-07 20:34 | 48.12162 | 16.54828 | 626 ft | 1 kts | 22° |
| 2026-05-07 20:35 | 48.12168 | 16.54832 | 627 ft | 1 kts | 23° |
| 2026-05-07 20:35 | 48.12174 | 16.54836 | 627 ft | 0 kts | 24° |
| 2026-05-07 20:35 | 48.12176 | 16.54837 | 627 ft | 0 kts | 24° |